Friday, August 26, 2016
11:59 UTC
  |  Log In   |  Register Free
Airport Search:

Oroville Municipal Airport
(KOVE)

Oroville Municipal Airport Diagram
No Airport Diagram Available

FAA data valid effective Jul 21 2016 - Sep 15 2016 (unless otherwise noted).

 
 
 
 
 
 
 
 
 
 
 
 
 
 
Current Aviation Weather for KOVE

Weather Summary


The most recent METAR observation for OVE was updated at: 12:53 UTC
METAR for OVE is not available. Closest METAR is for
METAR

METAR KOVE 261153Z 12003KT 10SM CLR 16/12 A2986 RMK AO2 SLP113 T01560122 10244 20156 51008

METAR KOVE 261053Z 13003KT 10SM CLR 16/12 A2986 RMK AO2 SLP111 T01610122

METAR KOVE 260953Z 00000KT 10SM CLR 17/12 A2985 RMK AO2 SLP108 T01670122

METAR KBAB 261058Z 17002KT 10SM CLR 13/11 A2982 RMK AO2 SLP100 T01280106 $

METAR KCIC 261135Z 13005KT 10SM CLR 18/12 A2987 RMK AO1

METAR KGOO 261140Z 00000KT 10SM CLR 22/00 A2996 RMK AO1

TAF for OVE is not available.
TAF

KBAB - TAF KBAB 261101Z 2611/2717 VRB06KT 9999 SKC QNH2975INS TX33/2623Z TN11/2612Z =

GlobalAir.com is loading additional information.
 Current Weather at OVE
62.0 F° (16.7 C°)

North winds at 0.0 mph
Pressure:
29.85 in
Humidity:
75%
Wind:
North at 0.0 mph
Dew Point:
54.0 F° (12.2 C°)
Visibility:
10.00 mi
OVE NOAA Radar




Find All Airport Services Find A Hotel Find A Rental Car Find A Golf Course Find A Restaurant $100 Hamburger



Airport Weather Forecast for KOVE

Translated METAR for KOVE (1153 UTC)
METAR:
KOVE 261153Z AUTO Oroville, Oroville, CA (KOVE). Aug 26, 1153Z, Automated. Wind from 120° at 3 knots, 10 statute miles visibility, Clear Skies, Temperature 16°C, Dewpoint 12°C, Altimeter is 29.86. Remarks: automated station with precipitation discriminator sea level pressure 1011.3 hectopascals hourly temp 15.6°C dewpoint 12.2°C 6-hour max temp 24.4°C 6-hour min temp 15.6°C 3-hour atmospheric pressure increasing, then steady, or increasing then increasing more slowly by 0.8 hectopascals
Conditions at:
KOVE (Oroville Muni, CA) observed 1153 UTC 26 August 2016
Temperature:
62.0 F° (16.7 C°)
Dewpoint:
not reported - refer to area weather report
Pressure:
29.85 Hg
Winds:
not reported
Visibility:
10.00
Ceiling:
at least 12,000 feet AGL
Clouds:
not reported - refer to area weather report
Remarks:
site is un-manned

Translated TAF for TAF for OVE is not available. Refer to local area forecast.
FBO's on the Field
FBO Company Facility Photos Services Transportation Aviation Fuel Prices: Prices include tax
Catering Weather Repair Courtesy Rental Type 100LL JetA JetA+ MOGAS 8087
 
Table Mountain Aviation

This FBO has not yet been rated
FS:Epic
Last Updated: Jul-22
Login to update fuel prices
SS:
Contact Table Mountain AviationMore FBO Information
 
Add another FBO Facility Photos Catering Weather Repair Courtesy Rental Type 100LL JetA JetA+ MOGAS 8087
Services Transportation Aviation Fuel Prices: Prices include tax


model-print
model-print
model-print
model-print